Macon, Nebraska
Current Conditions -  °F | °C
As of 11:55 AM on Saturday 20 Dec 2014 (Local Time) from KHDE Reporting Station
Clear Clear  
Wind Chill: 36°   Ceiling: Unl
Heat Index: 36°   Visibility: 10mi
Dew Point: 29°   Wind: 3mph
Humidity: 76%   Direction: 210°SSW
Pressure: 30.01"   Gusts: NA
Location:  40.1734°N, 98.8989°W
Report Text: KHDE 201755Z AUTO 21003KT 10SM CLR 02/M02 A3001 RMK AO2 T00221017 10022 21070
Loading
Personal Weather Stations






























Interactive Weather Map New forecast layout! Learn more

10-Day Weather Forecast

Advertisements
Track Severe Weather on mobile